createdAt,value
2023-01-08T00:04:32.928Z,29
2023-01-08T00:15:03.085Z,28.9
2023-01-08T00:20:26.502Z,28.9
2023-01-08T00:25:49.160Z,28.9
2023-01-08T00:30:56.074Z,28.9
2023-01-08T00:36:19.915Z,28.9
2023-01-08T00:41:42.906Z,28.8
2023-01-08T00:47:05.735Z,28.8
2023-01-08T00:52:29.511Z,28.8
2023-01-08T00:57:37.188Z,28.8
2023-01-08T01:02:44.616Z,28.8
2023-01-08T01:08:08.929Z,28.8
2023-01-08T01:13:31.660Z,28.7
2023-01-08T01:18:39.391Z,28.7
2023-01-08T01:24:03.598Z,28.7
2023-01-08T01:29:26.339Z,28.6
2023-01-08T01:34:49.357Z,28.6
2023-01-08T01:39:57.896Z,28.6
2023-01-08T01:45:20.418Z,28.6
2023-01-08T01:50:27.485Z,28.6
2023-01-08T01:55:51.675Z,28.6
2023-01-08T02:01:14.542Z,28.6
2023-01-08T02:06:38.694Z,28.6
2023-01-08T02:12:03.099Z,28.5
2023-01-08T02:17:26.323Z,28.5
2023-01-08T02:22:33.198Z,28.5
2023-01-08T02:27:56.875Z,28.4
2023-01-08T02:33:19.756Z,28.4
2023-01-08T02:38:42.324Z,28.4
2023-01-08T02:43:50.502Z,28.4
2023-01-08T02:48:57.927Z,28.4
2023-01-08T02:54:20.841Z,28.4
2023-01-08T02:59:44.622Z,28.4
2023-01-08T03:05:09.245Z,28.4
2023-01-08T03:10:31.673Z,28.4
2023-01-08T03:15:55.732Z,28.4
2023-01-08T03:21:20.655Z,28.3
2023-01-08T03:26:28.218Z,28.3
2023-01-08T03:31:52.548Z,28.3
2023-01-08T03:37:14.951Z,28.3
2023-01-08T03:42:36.568Z,28.3
2023-01-08T03:47:45.307Z,28.3
2023-01-08T03:53:07.823Z,28.3
2023-01-08T03:58:30.488Z,28.2
2023-01-08T04:03:55.780Z,28.2
2023-01-08T04:09:18.116Z,28.2
2023-01-08T04:14:40.449Z,28.2
2023-01-08T04:20:05.330Z,28.2
2023-01-08T04:25:27.374Z,28.1
2023-01-08T04:30:33.914Z,28.1
2023-01-08T04:35:57.955Z,28.1
2023-01-08T04:41:20.495Z,28.1
2023-01-08T04:46:26.969Z,28.1
2023-01-08T04:51:50.790Z,28.1
2023-01-08T04:57:13.419Z,28.1
2023-01-08T05:02:37.760Z,28.1
2023-01-08T05:08:03.559Z,28.1
2023-01-08T05:13:11.315Z,28.1
2023-01-08T05:18:34.339Z,28.1
2023-01-08T05:24:00.609Z,28
2023-01-08T05:29:23.988Z,28
2023-01-08T05:34:46.795Z,28
2023-01-08T05:39:55.268Z,28
2023-01-08T05:45:02.405Z,27.9
2023-01-08T05:50:25.386Z,27.9
2023-01-08T05:55:48.724Z,27.9
2023-01-08T06:01:14.448Z,27.9
2023-01-08T06:06:37.564Z,27.9
2023-01-08T06:12:00.932Z,27.9
2023-01-08T06:17:23.952Z,27.9
2023-01-08T06:22:00.485Z,27.9
2023-01-08T06:26:53.314Z,27.9
2023-01-08T06:32:00.185Z,27.9
2023-01-08T06:37:22.948Z,27.4
2023-01-08T06:42:31.301Z,26.9
2023-01-08T06:47:56.342Z,26.8
2023-01-08T06:53:04.036Z,26.6
2023-01-08T06:58:48.402Z,26.4
2023-01-08T07:04:12.454Z,26.3
2023-01-08T07:09:35.783Z,26.3
2023-01-08T07:14:59.367Z,26.3
2023-01-08T07:20:22.567Z,26.2
2023-01-08T07:25:45.840Z,26.2
2023-01-08T07:31:02.773Z,26.2
2023-01-08T07:36:28.636Z,26.1
2023-01-08T07:41:52.169Z,34.3
2023-01-08T07:47:15.660Z,35.3
2023-01-08T07:52:22.625Z,33.2
2023-01-08T07:57:30.077Z,32.1
2023-01-08T08:02:56.579Z,41.8
2023-01-08T08:08:19.282Z,42
2023-01-08T08:13:42.428Z,42.1
2023-01-08T08:19:06.210Z,37.1
2023-01-08T08:24:28.686Z,36.3
2023-01-08T08:29:51.973Z,36.9
2023-01-08T08:35:15.977Z,38.1
2023-01-08T08:40:38.214Z,39.4
2023-01-08T08:46:03.506Z,39
2023-01-08T08:51:27.337Z,38.3
2023-01-08T08:56:51.643Z,37.1
2023-01-08T09:02:15.833Z,38.1
2023-01-08T09:07:40.709Z,39.4
2023-01-08T09:13:03.161Z,41
2023-01-08T09:18:26.146Z,42.3
2023-01-08T09:23:49.629Z,43.5
2023-01-08T09:29:12.449Z,44.6
2023-01-08T09:34:35.455Z,45.6
2023-01-08T09:40:02.879Z,46.6
2023-01-08T09:45:10.183Z,47.4
2023-01-08T09:50:19.984Z,48.3
2023-01-08T09:55:43.629Z,48.9
2023-01-08T10:01:17.155Z,49.7
2023-01-08T10:06:41.171Z,50.4
2023-01-08T10:12:05.069Z,51.1
2023-01-08T10:17:28.363Z,51.6
2023-01-08T10:22:51.058Z,52.3
2023-01-08T10:28:01.655Z,52.8
2023-01-08T10:33:25.203Z,53.3
2023-01-08T10:38:50.057Z,53.9
2023-01-08T10:44:13.335Z,54.4
2023-01-08T10:49:38.366Z,54.9
2023-01-08T10:54:45.136Z,55.4
2023-01-08T10:59:54.112Z,55.8
2023-01-08T11:05:01.582Z,56.2
2023-01-08T11:10:08.811Z,56.6
2023-01-08T11:15:32.121Z,56.9
2023-01-08T11:20:55.564Z,57.3
2023-01-08T11:26:20.039Z,57.6
2023-01-08T11:31:42.962Z,57.9
2023-01-08T11:37:05.879Z,58.1
2023-01-08T11:42:31.507Z,58.4
2023-01-08T11:52:48.388Z,58.8
2023-01-08T11:57:55.076Z,58.9
2023-01-08T12:03:18.456Z,59.1
2023-01-08T12:08:40.515Z,59.3
2023-01-08T12:14:02.841Z,59.4
2023-01-08T12:19:10.298Z,59.6
2023-01-08T12:24:32.425Z,59.7
2023-01-08T12:30:08.719Z,59.8
2023-01-08T12:35:42.858Z,59.8
2023-01-08T12:41:05.794Z,59.8
2023-01-08T12:46:40.005Z,59.8
2023-01-08T12:52:02.254Z,59.8
2023-01-08T12:57:24.816Z,59.7
2023-01-08T13:02:49.048Z,59.6
2023-01-08T13:07:56.536Z,59.5
2023-01-08T13:13:19.424Z,59.4
2023-01-08T13:18:42.973Z,59.1
2023-01-08T13:23:50.330Z,58.8
2023-01-08T13:29:12.368Z,58.5
2023-01-08T13:34:03.907Z,58.3
2023-01-08T13:39:40.355Z,57.9
2023-01-08T13:44:51.262Z,57.4
2023-01-08T13:49:43.175Z,57
2023-01-08T13:55:05.969Z,56.6
2023-01-08T13:59:57.561Z,56.1
2023-01-08T14:05:21.377Z,55.5
2023-01-08T14:10:28.984Z,54.9
2023-01-08T14:15:51.877Z,54.3
2023-01-08T14:21:14.845Z,53.6
2023-01-08T14:26:37.994Z,52.9
2023-01-08T14:32:00.611Z,51.8
2023-01-08T14:37:23.237Z,48.6
2023-01-08T14:42:46.796Z,46.1
2023-01-08T14:48:03.129Z,44.5
2023-01-08T14:53:25.813Z,43.4
2023-01-08T14:58:48.875Z,42.6
2023-01-08T15:04:14.744Z,41.8
2023-01-08T15:09:36.904Z,41.3
2023-01-08T15:15:00.039Z,40.7
2023-01-08T15:20:22.521Z,40.2
2023-01-08T15:25:29.714Z,39.8
2023-01-08T15:30:52.879Z,39.4
2023-01-08T15:35:28.826Z,39
2023-01-08T15:40:22.992Z,38.8
2023-01-08T15:45:47.197Z,38.4
2023-01-08T15:50:55.047Z,38.1
2023-01-08T15:56:18.081Z,37.9
2023-01-08T16:01:41.324Z,37.6
2023-01-08T16:06:33.917Z,37.4
2023-01-08T16:11:25.240Z,37.1
2023-01-08T16:16:33.723Z,36.9
2023-01-08T16:21:56.668Z,36.8
2023-01-08T16:27:18.978Z,36.5
2023-01-08T16:32:44.203Z,36.3
2023-01-08T16:38:07.146Z,36.1
2023-01-08T16:43:14.457Z,35.9
2023-01-08T16:48:37.121Z,35.8
2023-01-08T16:53:29.209Z,35.6
2023-01-08T16:58:51.813Z,35.4
2023-01-08T17:04:16.117Z,35.3
2023-01-08T17:09:23.915Z,35.1
2023-01-08T17:14:30.617Z,34.9
2023-01-08T17:19:53.671Z,34.8
2023-01-08T17:25:01.118Z,34.6
2023-01-08T17:30:08.639Z,34.5
2023-01-08T17:35:31.774Z,34.4
2023-01-08T17:40:58.848Z,34.3
2023-01-08T17:46:22.286Z,34.1
2023-01-08T17:51:44.650Z,34.1
2023-01-08T17:56:52.844Z,33.9
2023-01-08T18:02:17.125Z,33.8
2023-01-08T18:07:41.131Z,33.8
2023-01-08T18:13:04.471Z,33.6
2023-01-08T18:17:55.836Z,33.6
2023-01-08T18:23:03.503Z,33.4
2023-01-08T18:28:26.814Z,33.4
2023-01-08T18:33:48.856Z,33.3
2023-01-08T18:39:11.962Z,33.2
2023-01-08T18:44:19.698Z,33.1
2023-01-08T18:49:42.948Z,33.1
2023-01-08T18:54:51.889Z,32.9
2023-01-08T18:59:59.289Z,32.9
2023-01-08T19:05:23.100Z,32.8
2023-01-08T19:10:30.678Z,32.8
2023-01-08T19:15:40.784Z,32.7
2023-01-08T19:21:04.827Z,32.6
2023-01-08T19:26:12.359Z,32.5
2023-01-08T19:31:23.959Z,32.5
2023-01-08T19:36:49.021Z,32.4
2023-01-08T19:41:56.291Z,32.3
2023-01-08T19:47:19.625Z,32.3
2023-01-08T19:52:45.322Z,32.3
2023-01-08T19:58:12.431Z,32.2
2023-01-08T20:03:25.876Z,32.1
2023-01-08T20:08:42.238Z,32.1
2023-01-08T20:14:12.013Z,32
2023-01-08T20:19:29.070Z,31.9
2023-01-08T20:24:58.631Z,31.9
2023-01-08T20:30:06.848Z,31.9
2023-01-08T20:35:00.907Z,31.8
2023-01-08T20:40:07.859Z,31.8
2023-01-08T20:45:45.454Z,31.7
2023-01-08T20:51:25.822Z,31.7
2023-01-08T20:56:51.533Z,31.6
2023-01-08T21:01:42.758Z,31.6
2023-01-08T21:06:50.604Z,31.5
2023-01-08T21:11:57.439Z,31.5
2023-01-08T21:16:49.568Z,31.4
2023-01-08T21:21:57.562Z,31.4
2023-01-08T21:26:32.566Z,31.4
2023-01-08T21:31:24.070Z,31.4
2023-01-08T21:36:30.967Z,31.3
2023-01-08T21:41:38.058Z,31.3
2023-01-08T21:46:45.453Z,31.3
2023-01-08T21:51:53.002Z,31.2
2023-01-08T21:57:01.984Z,31.1
2023-01-08T22:02:08.938Z,31.1
2023-01-08T22:07:16.071Z,31.1
2023-01-08T22:12:39.228Z,31.1
2023-01-08T22:18:02.011Z,31
2023-01-08T22:23:09.447Z,30.9
2023-01-08T22:28:16.733Z,30.9
2023-01-08T22:33:39.586Z,30.9
2023-01-08T22:38:48.915Z,30.9
2023-01-08T22:44:14.277Z,30.8
2023-01-08T22:49:21.556Z,30.8
2023-01-08T22:54:44.216Z,30.8
2023-01-08T23:00:07.135Z,30.8
2023-01-08T23:05:29.590Z,30.7
2023-01-08T23:10:37.211Z,30.7
2023-01-08T23:15:28.878Z,30.6
2023-01-08T23:20:27.516Z,30.6
2023-01-08T23:25:50.328Z,30.6
2023-01-08T23:31:13.629Z,30.6
2023-01-08T23:36:54.826Z,30.5
2023-01-08T23:42:16.352Z,30.5
2023-01-08T23:47:24.485Z,30.4
2023-01-08T23:52:30.730Z,30.4
2023-01-08T23:57:53.328Z,30.4
